sensor_id;sensor_type;location;lat;lon;timestamp;pressure;altitude;pressure_sealevel;temperature;humidity
75006;BME280;63553;51.814;4.600;2023-05-07T00:01:37;101763.22;;;14.30;88.45
75006;BME280;63553;51.814;4.600;2023-05-07T00:04:02;101757.28;;;14.32;88.09
75006;BME280;63553;51.814;4.600;2023-05-07T00:06:29;101763.41;;;14.34;88.08
75006;BME280;63553;51.814;4.600;2023-05-07T00:08:55;101764.56;;;14.41;87.82
75006;BME280;63553;51.814;4.600;2023-05-07T00:11:20;101760.31;;;14.44;87.20
75006;BME280;63553;51.814;4.600;2023-05-07T00:13:47;101768.38;;;14.45;87.25
75006;BME280;63553;51.814;4.600;2023-05-07T00:16:13;101763.44;;;14.51;87.34
75006;BME280;63553;51.814;4.600;2023-05-07T00:18:38;101775.28;;;14.48;87.32
75006;BME280;63553;51.814;4.600;2023-05-07T00:21:03;101772.50;;;14.57;88.05
75006;BME280;63553;51.814;4.600;2023-05-07T00:23:29;101763.75;;;14.50;87.41
75006;BME280;63553;51.814;4.600;2023-05-07T00:25:56;101765.78;;;14.58;87.21
75006;BME280;63553;51.814;4.600;2023-05-07T00:28:21;101765.44;;;14.51;87.42
75006;BME280;63553;51.814;4.600;2023-05-07T00:30:46;101761.63;;;14.55;87.25
75006;BME280;63553;51.814;4.600;2023-05-07T00:33:12;101764.59;;;14.50;87.25
75006;BME280;63553;51.814;4.600;2023-05-07T00:35:37;101759.00;;;14.50;87.13
75006;BME280;63553;51.814;4.600;2023-05-07T00:38:02;101760.31;;;14.53;87.06
75006;BME280;63553;51.814;4.600;2023-05-07T00:40:28;101760.13;;;14.49;87.24
75006;BME280;63553;51.814;4.600;2023-05-07T00:42:53;101757.53;;;14.61;86.92
75006;BME280;63553;51.814;4.600;2023-05-07T00:45:26;101758.03;;;14.55;86.73
75006;BME280;63553;51.814;4.600;2023-05-07T00:47:55;101755.88;;;14.52;87.13
75006;BME280;63553;51.814;4.600;2023-05-07T00:50:20;101762.47;;;14.56;87.00
75006;BME280;63553;51.814;4.600;2023-05-07T00:52:46;101749.97;;;14.62;86.93
75006;BME280;63553;51.814;4.600;2023-05-07T00:55:11;101752.91;;;14.57;86.63
75006;BME280;63553;51.814;4.600;2023-05-07T00:57:40;101748.81;;;14.54;87.43
75006;BME280;63553;51.814;4.600;2023-05-07T01:00:07;101747.97;;;14.54;87.45
75006;BME280;63553;51.814;4.600;2023-05-07T01:02:38;101750.59;;;14.50;87.40
75006;BME280;63553;51.814;4.600;2023-05-07T01:05:05;101742.84;;;14.47;87.31
75006;BME280;63553;51.814;4.600;2023-05-07T01:07:32;101748.47;;;14.47;87.61
75006;BME280;63553;51.814;4.600;2023-05-07T01:09:58;101747.81;;;14.50;86.92
75006;BME280;63553;51.814;4.600;2023-05-07T01:12:24;101743.69;;;14.48;87.51
75006;BME280;63553;51.814;4.600;2023-05-07T01:14:50;101738.75;;;14.44;87.79
75006;BME280;63553;51.814;4.600;2023-05-07T01:17:17;101727.72;;;14.39;87.86
75006;BME280;63553;51.814;4.600;2023-05-07T01:19:42;101733.81;;;14.41;88.07
75006;BME280;63553;51.814;4.600;2023-05-07T01:22:09;101738.72;;;14.36;88.38
75006;BME280;63553;51.814;4.600;2023-05-07T01:24:36;101732.78;;;14.37;88.50
75006;BME280;63553;51.814;4.600;2023-05-07T01:27:02;101743.28;;;14.32;88.76
75006;BME280;63553;51.814;4.600;2023-05-07T01:29:28;101728.38;;;14.36;88.51
75006;BME280;63553;51.814;4.600;2023-05-07T01:31:55;101731.00;;;14.50;87.79
75006;BME280;63553;51.814;4.600;2023-05-07T01:34:22;101729.50;;;14.35;88.31
75006;BME280;63553;51.814;4.600;2023-05-07T01:36:50;101724.34;;;14.29;88.47
75006;BME280;63553;51.814;4.600;2023-05-07T01:39:16;101723.09;;;14.43;87.36
75006;BME280;63553;51.814;4.600;2023-05-07T01:41:42;101719.81;;;14.33;87.83
75006;BME280;63553;51.814;4.600;2023-05-07T01:44:10;101719.59;;;14.29;87.88
75006;BME280;63553;51.814;4.600;2023-05-07T01:46:37;101712.97;;;14.17;88.42
75006;BME280;63553;51.814;4.600;2023-05-07T01:49:03;101713.78;;;14.09;88.59
75006;BME280;63553;51.814;4.600;2023-05-07T01:51:29;101718.22;;;14.10;88.60
75006;BME280;63553;51.814;4.600;2023-05-07T01:53:54;101716.09;;;14.07;88.61
75006;BME280;63553;51.814;4.600;2023-05-07T01:56:21;101724.28;;;14.03;88.90
75006;BME280;63553;51.814;4.600;2023-05-07T01:58:47;101717.22;;;14.06;88.51
75006;BME280;63553;51.814;4.600;2023-05-07T02:01:13;101719.19;;;14.05;88.53
75006;BME280;63553;51.814;4.600;2023-05-07T02:03:39;101714.44;;;14.06;88.28
75006;BME280;63553;51.814;4.600;2023-05-07T02:06:04;101709.69;;;14.15;87.85
75006;BME280;63553;51.814;4.600;2023-05-07T02:08:29;101718.75;;;14.29;87.33
75006;BME280;63553;51.814;4.600;2023-05-07T02:10:55;101721.34;;;14.17;87.19
75006;BME280;63553;51.814;4.600;2023-05-07T02:13:20;101722.38;;;14.21;87.22
75006;BME280;63553;51.814;4.600;2023-05-07T02:15:47;101731.41;;;14.18;87.61
75006;BME280;63553;51.814;4.600;2023-05-07T02:18:15;101725.53;;;14.28;87.55
75006;BME280;63553;51.814;4.600;2023-05-07T02:20:41;101729.09;;;14.20;87.41
75006;BME280;63553;51.814;4.600;2023-05-07T02:23:06;101723.66;;;14.15;87.58
75006;BME280;63553;51.814;4.600;2023-05-07T02:25:32;101723.50;;;14.20;87.08
75006;BME280;63553;51.814;4.600;2023-05-07T02:27:57;101732.41;;;14.22;87.06
75006;BME280;63553;51.814;4.600;2023-05-07T02:30:22;101727.97;;;14.21;86.53
75006;BME280;63553;51.814;4.600;2023-05-07T02:32:48;101719.09;;;14.19;87.28
75006;BME280;63553;51.814;4.600;2023-05-07T02:35:14;101717.94;;;14.28;86.70
75006;BME280;63553;51.814;4.600;2023-05-07T02:37:39;101709.69;;;14.23;86.47
75006;BME280;63553;51.814;4.600;2023-05-07T02:40:05;101711.66;;;14.23;86.97
75006;BME280;63553;51.814;4.600;2023-05-07T02:42:30;101718.75;;;14.20;86.51
75006;BME280;63553;51.814;4.600;2023-05-07T02:44:56;101719.81;;;14.33;85.91
75006;BME280;63553;51.814;4.600;2023-05-07T02:47:21;101715.31;;;14.32;85.80
75006;BME280;63553;51.814;4.600;2023-05-07T02:49:47;101719.41;;;14.26;85.94
75006;BME280;63553;51.814;4.600;2023-05-07T02:52:12;101722.19;;;14.17;86.65
75006;BME280;63553;51.814;4.600;2023-05-07T02:54:38;101713.97;;;14.21;86.23
75006;BME280;63553;51.814;4.600;2023-05-07T02:57:03;101712.31;;;14.11;87.00
75006;BME280;63553;51.814;4.600;2023-05-07T02:59:28;101730.41;;;14.14;87.11
75006;BME280;63553;51.814;4.600;2023-05-07T03:01:54;101723.00;;;14.09;87.01
75006;BME280;63553;51.814;4.600;2023-05-07T03:04:19;101722.53;;;14.16;86.50
75006;BME280;63553;51.814;4.600;2023-05-07T03:06:45;101730.28;;;14.19;86.25
75006;BME280;63553;51.814;4.600;2023-05-07T03:09:10;101725.97;;;14.13;86.79
75006;BME280;63553;51.814;4.600;2023-05-07T03:11:36;101727.44;;;14.10;86.39
75006;BME280;63553;51.814;4.600;2023-05-07T03:14:01;101729.91;;;14.12;87.04
75006;BME280;63553;51.814;4.600;2023-05-07T03:16:27;101734.03;;;14.14;86.54
75006;BME280;63553;51.814;4.600;2023-05-07T03:18:53;101734.03;;;14.14;86.66
75006;BME280;63553;51.814;4.600;2023-05-07T03:21:18;101727.13;;;14.20;86.59
75006;BME280;63553;51.814;4.600;2023-05-07T03:23:43;101723.19;;;14.21;86.41
75006;BME280;63553;51.814;4.600;2023-05-07T03:26:09;101729.28;;;14.32;85.92
75006;BME280;63553;51.814;4.600;2023-05-07T03:28:34;101731.00;;;14.33;86.28
75006;BME280;63553;51.814;4.600;2023-05-07T03:31:00;101723.09;;;14.35;86.78
75006;BME280;63553;51.814;4.600;2023-05-07T03:33:25;101719.81;;;14.33;86.74
75006;BME280;63553;51.814;4.600;2023-05-07T03:35:50;101715.97;;;14.29;86.60
75006;BME280;63553;51.814;4.600;2023-05-07T03:38:16;101728.63;;;14.26;86.50
75006;BME280;63553;51.814;4.600;2023-05-07T03:40:41;101727.31;;;14.24;86.61
75006;BME280;63553;51.814;4.600;2023-05-07T03:43:06;101724.50;;;14.24;86.33
75006;BME280;63553;51.814;4.600;2023-05-07T03:45:31;101729.09;;;14.20;86.42
75006;BME280;63553;51.814;4.600;2023-05-07T03:47:57;101726.31;;;14.20;86.53
75006;BME280;63553;51.814;4.600;2023-05-07T03:50:22;101731.91;;;14.20;86.64
75006;BME280;63553;51.814;4.600;2023-05-07T03:52:47;101728.63;;;14.26;85.78
75006;BME280;63553;51.814;4.600;2023-05-07T03:55:13;101732.06;;;14.23;86.32
75006;BME280;63553;51.814;4.600;2023-05-07T03:57:38;101727.97;;;14.21;86.18
75006;BME280;63553;51.814;4.600;2023-05-07T04:00:04;101733.22;;;14.22;86.18
75006;BME280;63553;51.814;4.600;2023-05-07T04:02:30;101740.16;;;14.25;86.30
75006;BME280;63553;51.814;4.600;2023-05-07T04:04:55;101742.59;;;14.18;86.58
75006;BME280;63553;51.814;4.600;2023-05-07T04:07:21;101746.88;;;14.15;86.52
75006;BME280;63553;51.814;4.600;2023-05-07T04:09:46;101741.28;;;14.15;86.46
75006;BME280;63553;51.814;4.600;2023-05-07T04:12:11;101746.53;;;14.17;86.43
75006;BME280;63553;51.814;4.600;2023-05-07T04:14:37;101755.59;;;14.22;86.31
75006;BME280;63553;51.814;4.600;2023-05-07T04:17:02;101748.03;;;14.23;86.50
75006;BME280;63553;51.814;4.600;2023-05-07T04:19:27;101746.91;;;14.24;86.09
75006;BME280;63553;51.814;4.600;2023-05-07T04:21:53;101742.63;;;14.26;86.05
75006;BME280;63553;51.814;4.600;2023-05-07T04:24:18;101749.88;;;14.27;86.10
75006;BME280;63553;51.814;4.600;2023-05-07T04:26:43;101758.56;;;14.26;86.16
75006;BME280;63553;51.814;4.600;2023-05-07T04:29:09;101746.72;;;14.29;86.08
75006;BME280;63553;51.814;4.600;2023-05-07T04:31:34;101744.28;;;14.27;86.25
75006;BME280;63553;51.814;4.600;2023-05-07T04:33:59;101749.34;;;14.25;86.89
75006;BME280;63553;51.814;4.600;2023-05-07T04:36:26;101748.22;;;14.26;87.16
75006;BME280;63553;51.814;4.600;2023-05-07T04:38:53;101750.53;;;14.24;87.27
75006;BME280;63553;51.814;4.600;2023-05-07T04:41:18;101749.03;;;14.27;87.02
75006;BME280;63553;51.814;4.600;2023-05-07T04:43:43;101742.97;;;14.25;87.10
75006;BME280;63553;51.814;4.600;2023-05-07T04:46:09;101746.41;;;14.22;87.13
75006;BME280;63553;51.814;4.600;2023-05-07T04:48:34;101742.97;;;14.25;86.96
75006;BME280;63553;51.814;4.600;2023-05-07T04:50:59;101748.88;;;14.23;87.03
75006;BME280;63553;51.814;4.600;2023-05-07T04:53:25;101755.28;;;14.24;87.17
75006;BME280;63553;51.814;4.600;2023-05-07T04:55:55;101756.44;;;14.31;86.93
75006;BME280;63553;51.814;4.600;2023-05-07T04:58:21;101755.81;;;14.34;87.03
75006;BME280;63553;51.814;4.600;2023-05-07T05:00:46;101749.22;;;14.30;86.95
75006;BME280;63553;51.814;4.600;2023-05-07T05:03:11;101751.19;;;14.30;87.14
75006;BME280;63553;51.814;4.600;2023-05-07T05:05:37;101755.47;;;14.27;86.75
75006;BME280;63553;51.814;4.600;2023-05-07T05:08:02;101762.03;;;14.31;87.04
75006;BME280;63553;51.814;4.600;2023-05-07T05:10:27;101760.47;;;14.48;86.08
75006;BME280;63553;51.814;4.600;2023-05-07T05:12:53;101767.88;;;14.43;86.63
75006;BME280;63553;51.814;4.600;2023-05-07T05:15:18;101755.03;;;14.34;86.94
75006;BME280;63553;51.814;4.600;2023-05-07T05:17:43;101765.56;;;14.37;87.16
75006;BME280;63553;51.814;4.600;2023-05-07T05:20:09;101772.16;;;14.41;87.27
75006;BME280;63553;51.814;4.600;2023-05-07T05:22:38;101762.78;;;14.37;87.69
75006;BME280;63553;51.814;4.600;2023-05-07T05:25:03;101767.84;;;14.35;87.91
75006;BME280;63553;51.814;4.600;2023-05-07T05:27:29;101782.69;;;14.44;88.05
75006;BME280;63553;51.814;4.600;2023-05-07T05:29:54;101776.75;;;14.37;88.45
75006;BME280;63553;51.814;4.600;2023-05-07T05:32:20;101776.84;;;14.32;89.11
75006;BME280;63553;51.814;4.600;2023-05-07T05:34:45;101776.03;;;14.31;89.10
75006;BME280;63553;51.814;4.600;2023-05-07T05:37:11;101781.19;;;14.38;88.82
75006;BME280;63553;51.814;4.600;2023-05-07T05:39:36;101775.22;;;14.31;89.38
75006;BME280;63553;51.814;4.600;2023-05-07T05:42:01;101790.84;;;14.32;89.32
75006;BME280;63553;51.814;4.600;2023-05-07T05:44:27;101791.72;;;14.41;89.95
75006;BME280;63553;51.814;4.600;2023-05-07T05:46:52;101789.28;;;14.39;89.45
75006;BME280;63553;51.814;4.600;2023-05-07T05:49:20;101789.59;;;14.38;89.80
75006;BME280;63553;51.814;4.600;2023-05-07T05:51:45;101791.72;;;14.41;89.64
75006;BME280;63553;51.814;4.600;2023-05-07T05:54:11;101799.19;;;14.54;88.79
75006;BME280;63553;51.814;4.600;2023-05-07T05:56:37;101798.19;;;14.59;88.90
75006;BME280;63553;51.814;4.600;2023-05-07T05:59:02;101791.47;;;14.68;87.95
75006;BME280;63553;51.814;4.600;2023-05-07T06:01:27;101792.75;;;14.54;88.83
75006;BME280;63553;51.814;4.600;2023-05-07T06:03:53;101800.81;;;14.55;89.55
75006;BME280;63553;51.814;4.600;2023-05-07T06:06:18;101799.84;;;14.60;89.61
75006;BME280;63553;51.814;4.600;2023-05-07T06:08:43;101803.94;;;14.54;89.64
75006;BME280;63553;51.814;4.600;2023-05-07T06:11:09;101799.69;;;14.73;88.51
75006;BME280;63553;51.814;4.600;2023-05-07T06:13:34;101797.69;;;14.57;88.98
75006;BME280;63553;51.814;4.600;2023-05-07T06:16:00;101788.00;;;14.63;89.04
75006;BME280;63553;51.814;4.600;2023-05-07T06:18:25;101794.72;;;14.53;89.82
75006;BME280;63553;51.814;4.600;2023-05-07T06:20:51;101792.94;;;14.57;89.51
75006;BME280;63553;51.814;4.600;2023-05-07T06:23:17;101799.84;;;14.60;89.45
75006;BME280;63553;51.814;4.600;2023-05-07T06:25:48;101803.97;;;14.62;89.12
75006;BME280;63553;51.814;4.600;2023-05-07T06:28:13;101802.28;;;14.53;89.96
75006;BME280;63553;51.814;4.600;2023-05-07T06:30:38;101796.56;;;14.58;90.26
75006;BME280;63553;51.814;4.600;2023-05-07T06:33:05;101782.41;;;14.54;89.90
75006;BME280;63553;51.814;4.600;2023-05-07T06:35:30;101803.13;;;14.62;89.34
75006;BME280;63553;51.814;4.600;2023-05-07T06:37:55;101801.19;;;14.71;89.80
75006;BME280;63553;51.814;4.600;2023-05-07T06:40:21;101797.44;;;14.92;87.90
75006;BME280;63553;51.814;4.600;2023-05-07T06:42:46;101793.50;;;15.02;88.18
75006;BME280;63553;51.814;4.600;2023-05-07T06:45:11;101792.31;;;14.94;88.29
75006;BME280;63553;51.814;4.600;2023-05-07T06:47:37;101796.28;;;15.11;88.05
75006;BME280;63553;51.814;4.600;2023-05-07T06:50:02;101802.69;;;15.02;88.13
75006;BME280;63553;51.814;4.600;2023-05-07T06:52:28;101806.34;;;15.29;88.03
75006;BME280;63553;51.814;4.600;2023-05-07T06:54:53;101807.28;;;15.76;84.72
75006;BME280;63553;51.814;4.600;2023-05-07T06:57:18;101806.88;;;16.03;82.84
75006;BME280;63553;51.814;4.600;2023-05-07T06:59:43;101809.84;;;15.98;83.53
75006;BME280;63553;51.814;4.600;2023-05-07T07:02:09;101810.47;;;16.12;83.27
75006;BME280;63553;51.814;4.600;2023-05-07T07:04:34;101806.97;;;15.60;84.35
75006;BME280;63553;51.814;4.600;2023-05-07T07:06:59;101815.16;;;15.91;84.66
75006;BME280;63553;51.814;4.600;2023-05-07T07:09:25;101814.94;;;16.04;83.85
75006;BME280;63553;51.814;4.600;2023-05-07T07:11:50;101812.16;;;15.96;83.47
75006;BME280;63553;51.814;4.600;2023-05-07T07:14:16;101823.31;;;16.13;84.62
75006;BME280;63553;51.814;4.600;2023-05-07T07:16:41;101820.63;;;16.25;84.13
75006;BME280;63553;51.814;4.600;2023-05-07T07:19:06;101822.00;;;16.48;82.27
75006;BME280;63553;51.814;4.600;2023-05-07T07:21:32;101819.53;;;16.18;83.29
75006;BME280;63553;51.814;4.600;2023-05-07T07:23:57;101820.25;;;15.97;85.45
75006;BME280;63553;51.814;4.600;2023-05-07T07:26:22;101820.16;;;16.23;84.38
75006;BME280;63553;51.814;4.600;2023-05-07T07:28:48;101823.47;;;16.17;84.83
75006;BME280;63553;51.814;4.600;2023-05-07T07:31:13;101820.53;;;16.42;83.85
75006;BME280;63553;51.814;4.600;2023-05-07T07:33:39;101820.78;;;16.29;84.42
75006;BME280;63553;51.814;4.600;2023-05-07T07:36:05;101817.03;;;16.62;82.97
75006;BME280;63553;51.814;4.600;2023-05-07T07:38:31;101821.28;;;16.69;82.04
75006;BME280;63553;51.814;4.600;2023-05-07T07:40:56;101814.09;;;16.80;82.26
75006;BME280;63553;51.814;4.600;2023-05-07T07:43:22;101822.38;;;16.76;83.13
75006;BME280;63553;51.814;4.600;2023-05-07T07:45:47;101819.16;;;16.65;83.56
75006;BME280;63553;51.814;4.600;2023-05-07T07:48:13;101821.41;;;16.72;83.89
75006;BME280;63553;51.814;4.600;2023-05-07T07:50:38;101815.63;;;17.18;80.79
75006;BME280;63553;51.814;4.600;2023-05-07T07:53:03;101815.63;;;16.98;81.68
75006;BME280;63553;51.814;4.600;2023-05-07T07:55:29;101825.69;;;16.99;81.47
75006;BME280;63553;51.814;4.600;2023-05-07T07:57:56;101819.88;;;16.83;82.97
75006;BME280;63553;51.814;4.600;2023-05-07T08:00:21;101820.28;;;16.94;81.73
75006;BME280;63553;51.814;4.600;2023-05-07T08:02:47;101816.84;;;16.88;82.75
75006;BME280;63553;51.814;4.600;2023-05-07T08:05:12;101829.19;;;16.96;82.70
75006;BME280;63553;51.814;4.600;2023-05-07T08:07:37;101833.19;;;17.15;80.94
75006;BME280;63553;51.814;4.600;2023-05-07T08:10:03;101826.56;;;17.53;80.10
75006;BME280;63553;51.814;4.600;2023-05-07T08:12:29;101820.94;;;17.53;80.18
75006;BME280;63553;51.814;4.600;2023-05-07T08:14:54;101823.69;;;17.61;79.69
75006;BME280;63553;51.814;4.600;2023-05-07T08:17:20;101828.06;;;17.71;79.08
75006;BME280;63553;51.814;4.600;2023-05-07T08:19:47;101827.19;;;17.91;78.42
75006;BME280;63553;51.814;4.600;2023-05-07T08:22:12;101832.81;;;17.91;77.15
75006;BME280;63553;51.814;4.600;2023-05-07T08:24:38;101825.91;;;18.01;77.64
75006;BME280;63553;51.814;4.600;2023-05-07T08:27:03;101825.28;;;18.40;76.73
75006;BME280;63553;51.814;4.600;2023-05-07T08:29:28;101835.00;;;18.30;75.12
75006;BME280;63553;51.814;4.600;2023-05-07T08:31:54;101833.00;;;18.92;72.64
75006;BME280;63553;51.814;4.600;2023-05-07T08:34:22;101830.66;;;19.46;70.83
75006;BME280;63553;51.814;4.600;2023-05-07T08:36:47;101833.50;;;19.33;70.33
75006;BME280;63553;51.814;4.600;2023-05-07T08:39:15;101838.03;;;19.78;69.63
75006;BME280;63553;51.814;4.600;2023-05-07T08:41:45;101834.25;;;19.86;68.43
75006;BME280;63553;51.814;4.600;2023-05-07T08:44:13;101833.63;;;20.08;67.50
75006;BME280;63553;51.814;4.600;2023-05-07T08:46:41;101835.50;;;20.47;66.48
75006;BME280;63553;51.814;4.600;2023-05-07T08:49:08;101841.78;;;20.57;65.15
75006;BME280;63553;51.814;4.600;2023-05-07T08:51:34;101839.75;;;21.23;63.66
75006;BME280;63553;51.814;4.600;2023-05-07T08:54:01;101833.28;;;21.80;60.99
75006;BME280;63553;51.814;4.600;2023-05-07T08:56:27;101830.59;;;22.29;60.21
75006;BME280;63553;51.814;4.600;2023-05-07T08:58:52;101836.19;;;22.71;58.71
75006;BME280;63553;51.814;4.600;2023-05-07T09:01:21;101830.13;;;22.99;57.91
75006;BME280;63553;51.814;4.600;2023-05-07T09:03:47;101833.44;;;22.78;57.70
75006;BME280;63553;51.814;4.600;2023-05-07T09:06:12;101836.38;;;23.11;56.34
75006;BME280;63553;51.814;4.600;2023-05-07T09:08:38;101839.38;;;23.48;55.57
75006;BME280;63553;51.814;4.600;2023-05-07T09:11:03;101840.16;;;23.82;54.35
75006;BME280;63553;51.814;4.600;2023-05-07T09:13:29;101841.03;;;24.19;53.30
75006;BME280;63553;51.814;4.600;2023-05-07T09:15:55;101842.63;;;24.17;52.49
75006;BME280;63553;51.814;4.600;2023-05-07T09:18:20;101840.72;;;23.95;53.32
75006;BME280;63553;51.814;4.600;2023-05-07T09:20:45;101844.41;;;24.36;52.36
75006;BME280;63553;51.814;4.600;2023-05-07T09:23:11;101837.28;;;24.59;52.09
75006;BME280;63553;51.814;4.600;2023-05-07T09:25:36;101842.03;;;24.85;51.16
75006;BME280;63553;51.814;4.600;2023-05-07T09:28:03;101846.13;;;24.47;52.48
75006;BME280;63553;51.814;4.600;2023-05-07T09:30:33;101844.88;;;24.85;50.98
75006;BME280;63553;51.814;4.600;2023-05-07T09:32:59;101847.47;;;24.60;51.79
75006;BME280;63553;51.814;4.600;2023-05-07T09:35:25;101844.94;;;24.48;51.77
75006;BME280;63553;51.814;4.600;2023-05-07T09:37:55;101842.53;;;24.54;50.91
75006;BME280;63553;51.814;4.600;2023-05-07T09:40:23;101844.50;;;24.94;49.89
75006;BME280;63553;51.814;4.600;2023-05-07T09:42:49;101842.59;;;25.15;49.14
75006;BME280;63553;51.814;4.600;2023-05-07T09:45:16;101846.16;;;24.98;50.43
75006;BME280;63553;51.814;4.600;2023-05-07T09:47:42;101838.84;;;24.97;50.13
75006;BME280;63553;51.814;4.600;2023-05-07T09:50:10;101838.91;;;24.57;51.16
75006;BME280;63553;51.814;4.600;2023-05-07T09:52:38;101846.78;;;24.77;49.96
75006;BME280;63553;51.814;4.600;2023-05-07T09:55:06;101841.84;;;24.71;50.09
75006;BME280;63553;51.814;4.600;2023-05-07T09:57:32;101843.34;;;25.02;49.12
75006;BME280;63553;51.814;4.600;2023-05-07T09:59:59;101847.38;;;24.97;49.36
75006;BME280;63553;51.814;4.600;2023-05-07T10:02:29;101847.72;;;24.85;50.07
75006;BME280;63553;51.814;4.600;2023-05-07T10:04:56;101851.06;;;24.54;50.56
75006;BME280;63553;51.814;4.600;2023-05-07T10:07:22;101850.34;;;24.64;49.73
75006;BME280;63553;51.814;4.600;2023-05-07T10:09:49;101850.16;;;24.43;50.45
75006;BME280;63553;51.814;4.600;2023-05-07T10:12:16;101852.38;;;23.53;51.70
75006;BME280;63553;51.814;4.600;2023-05-07T10:14:42;101848.34;;;24.24;51.39
75006;BME280;63553;51.814;4.600;2023-05-07T10:17:09;101849.50;;;23.83;51.89
75006;BME280;63553;51.814;4.600;2023-05-07T10:19:37;101847.44;;;23.20;51.94
75006;BME280;63553;51.814;4.600;2023-05-07T10:22:05;101842.03;;;23.67;52.13
75006;BME280;63553;51.814;4.600;2023-05-07T10:24:35;101842.69;;;23.91;51.64
75006;BME280;63553;51.814;4.600;2023-05-07T10:27:04;101845.13;;;23.89;51.53
75006;BME280;63553;51.814;4.600;2023-05-07T10:34:45;101855.03;;;23.68;51.60
75006;BME280;63553;51.814;4.600;2023-05-07T10:37:12;101850.53;;;23.67;51.28
75006;BME280;63553;51.814;4.600;2023-05-07T10:39:38;101857.97;;;23.75;51.70
75006;BME280;63553;51.814;4.600;2023-05-07T10:42:11;101855.91;;;23.76;51.43
75006;BME280;63553;51.814;4.600;2023-05-07T10:44:37;101841.38;;;23.81;51.19
75006;BME280;63553;51.814;4.600;2023-05-07T10:47:14;101842.94;;;23.75;51.39
75006;BME280;63553;51.814;4.600;2023-05-07T10:52:23;101870.00;;;23.65;51.73
75006;BME280;63553;51.814;4.600;2023-05-07T10:57:50;101868.38;;;23.38;52.41
75006;BME280;63553;51.814;4.600;2023-05-07T11:05:32;101870.91;;;23.17;52.01
75006;BME280;63553;51.814;4.600;2023-05-07T11:08:01;101875.91;;;22.97;52.33
75006;BME280;63553;51.814;4.600;2023-05-07T11:10:55;101872.38;;;22.81;52.31
75006;BME280;63553;51.814;4.600;2023-05-07T11:13:57;101878.53;;;23.09;52.17
75006;BME280;63553;51.814;4.600;2023-05-07T11:16:24;101874.31;;;23.00;52.41
75006;BME280;63553;51.814;4.600;2023-05-07T11:18:54;101870.88;;;22.87;52.80
75006;BME280;63553;51.814;4.600;2023-05-07T11:23:58;101870.72;;;23.03;52.89
75006;BME280;63553;51.814;4.600;2023-05-07T11:26:24;101869.28;;;22.90;53.17
75006;BME280;63553;51.814;4.600;2023-05-07T11:28:51;101874.31;;;23.00;53.29
75006;BME280;63553;51.814;4.600;2023-05-07T11:31:21;101875.63;;;23.06;52.82
75006;BME280;63553;51.814;4.600;2023-05-07T11:33:47;101873.22;;;23.08;53.03
75006;BME280;63553;51.814;4.600;2023-05-07T11:36:13;101871.59;;;23.07;52.88
75006;BME280;63553;51.814;4.600;2023-05-07T11:38:38;101871.59;;;23.07;52.98
75006;BME280;63553;51.814;4.600;2023-05-07T11:41:04;101873.41;;;22.69;54.46
75006;BME280;63553;51.814;4.600;2023-05-07T11:43:31;101872.88;;;22.87;53.94
75006;BME280;63553;51.814;4.600;2023-05-07T11:46:08;101874.16;;;22.89;53.37
75006;BME280;63553;51.814;4.600;2023-05-07T11:48:33;101878.75;;;22.75;53.86
75006;BME280;63553;51.814;4.600;2023-05-07T11:51:04;101882.81;;;22.74;53.84
75006;BME280;63553;51.814;4.600;2023-05-07T11:53:40;101883.50;;;22.67;53.50
75006;BME280;63553;51.814;4.600;2023-05-07T11:56:07;101888.09;;;22.52;54.42
75006;BME280;63553;51.814;4.600;2023-05-07T11:58:33;101898.22;;;22.31;56.58
75006;BME280;63553;51.814;4.600;2023-05-07T12:00:58;101892.03;;;22.25;55.35
75006;BME280;63553;51.814;4.600;2023-05-07T12:03:23;101895.00;;;22.32;54.03
75006;BME280;63553;51.814;4.600;2023-05-07T12:05:49;101907.03;;;22.26;54.33
75006;BME280;63553;51.814;4.600;2023-05-07T12:08:18;101898.34;;;22.15;54.91
75006;BME280;63553;51.814;4.600;2023-05-07T12:10:44;101895.91;;;21.94;57.96
75006;BME280;63553;51.814;4.600;2023-05-07T12:13:25;101899.28;;;22.03;54.77
75006;BME280;63553;51.814;4.600;2023-05-07T12:15:51;101900.44;;;21.99;54.61
75006;BME280;63553;51.814;4.600;2023-05-07T12:18:17;101894.25;;;21.93;54.84
75006;BME280;63553;51.814;4.600;2023-05-07T12:20:43;101899.84;;;21.90;54.92
75006;BME280;63553;51.814;4.600;2023-05-07T12:23:09;101898.91;;;21.86;55.03
75006;BME280;63553;51.814;4.600;2023-05-07T12:25:36;101900.28;;;21.73;56.36
75006;BME280;63553;51.814;4.600;2023-05-07T12:28:02;101892.88;;;21.68;56.25
75006;BME280;63553;51.814;4.600;2023-05-07T12:30:30;101899.72;;;21.48;60.56
75006;BME280;63553;51.814;4.600;2023-05-07T12:32:55;101896.72;;;21.22;64.32
75006;BME280;63553;51.814;4.600;2023-05-07T12:35:31;101901.84;;;21.35;61.68
75006;BME280;63553;51.814;4.600;2023-05-07T12:37:58;101897.44;;;21.19;64.93
75006;BME280;63553;51.814;4.600;2023-05-07T12:40:35;101906.22;;;20.82;64.98
75006;BME280;63553;51.814;4.600;2023-05-07T12:43:01;101916.63;;;20.19;71.64
75006;BME280;63553;51.814;4.600;2023-05-07T12:45:27;101925.91;;;19.76;74.77
75006;BME280;63553;51.814;4.600;2023-05-07T12:47:52;101922.72;;;20.06;71.63
75006;BME280;63553;51.814;4.600;2023-05-07T12:50:17;101929.47;;;20.01;72.23
75006;BME280;63553;51.814;4.600;2023-05-07T12:52:45;101934.03;;;19.66;72.06
75006;BME280;63553;51.814;4.600;2023-05-07T12:55:13;101930.59;;;19.45;73.44
75006;BME280;63553;51.814;4.600;2023-05-07T12:57:42;101943.72;;;19.53;73.32
75006;BME280;63553;51.814;4.600;2023-05-07T13:00:09;101938.22;;;19.44;74.12
75006;BME280;63553;51.814;4.600;2023-05-07T13:02:38;101949.50;;;19.84;71.57
75006;BME280;63553;51.814;4.600;2023-05-07T13:05:04;101952.22;;;19.40;73.12